Time;durP1;ratioP1;P1;durP2;ratioP2;P2;SDS_P1;SDS_P2;PMS_P1;PMS_P2;Temp;Humidity;BMP_temperature;BMP_pressure;BME280_temperature;BME280_humidity;BME280_pressure;Samples;Min_cycle;Max_cycle;Signal;HPM_P1;HPM_P2
2022/08/05 00:02:22;;;;;;;3.90;1.70;;;;;;;28.10;36.48;100900.59;5033741;28;20049;-82
2022/08/05 00:04:51;;;;;;;2.90;1.80;;;;;;;28.13;36.76;100902.09;5015445;28;20137;-83
2022/08/05 00:07:22;;;;;;;4.30;1.90;;;;;;;28.09;36.96;100906.38;5019560;28;20504;-82
2022/08/05 00:10:11;;;;;;;2.80;1.73;;;;;;;28.07;36.88;100908.56;5016249;28;20041;-83
2022/08/05 00:12:41;;;;;;;3.15;1.95;;;;;;;28.07;36.64;100905.78;5025183;28;20508;-83
2022/08/05 00:15:24;;;;;;;3.03;1.90;;;;;;;28.05;37.14;100911.56;5031713;28;20053;-83
2022/08/05 00:18:12;;;;;;;3.70;1.60;;;;;;;28.04;37.11;100893.09;5015486;28;20558;-83
2022/08/05 00:20:51;;;;;;;2.50;1.65;;;;;;;28.06;37.28;100899.31;5020909;28;20038;-83
2022/08/05 00:23:19;;;;;;;3.53;1.80;;;;;;;28.05;37.08;100910.69;5018117;28;20531;-83
2022/08/05 00:26:08;;;;;;;2.40;1.50;;;;;;;28.02;37.40;100912.84;5038204;28;20080;-83
2022/08/05 00:28:36;;;;;;;4.35;1.73;;;;;;;28.03;37.32;100911.78;5017166;28;20095;-83
2022/08/05 00:31:07;;;;;;;3.80;1.50;;;;;;;28.04;37.34;100915.44;5031789;28;20473;-83
2022/08/05 00:33:37;;;;;;;3.45;1.75;;;;;;;28.04;37.65;100915.44;5029602;28;20045;-82
2022/08/05 00:36:27;;;;;;;3.33;1.70;;;;;;;28.06;37.63;100918.00;5016870;28;20053;-82
2022/08/05 00:39:14;;;;;;;2.67;1.45;;;;;;;28.02;37.56;100904.47;5033500;28;20127;-82
2022/08/05 00:41:46;;;;;;;2.45;1.42;;;;;;;28.07;37.88;100897.41;5038940;28;20037;-81
2022/08/05 00:44:23;;;;;;;3.50;1.90;;;;;;;28.03;37.69;100899.75;5029343;28;20145;-83
2022/08/05 00:46:58;;;;;;;3.17;1.58;;;;;;;28.02;37.66;100895.22;5044941;28;20057;-82
2022/08/05 00:49:32;;;;;;;3.85;1.50;;;;;;;28.02;37.80;100898.03;5048537;28;20038;-82
2022/08/05 00:52:21;;;;;;;2.58;1.58;;;;;;;28.03;37.64;100903.41;5022377;28;20045;-80
2022/08/05 00:54:56;;;;;;;3.47;1.80;;;;;;;28.01;37.70;100894.38;5027739;23;20140;-67
2022/08/05 00:57:25;;;;;;;3.40;1.70;;;;;;;28.01;37.73;100891.59;5031223;28;20033;-67
2022/08/05 01:00:13;;;;;;;3.13;1.50;;;;;;;28.00;37.76;100901.03;5021865;28;20048;-67
2022/08/05 01:02:43;;;;;;;2.85;1.58;;;;;;;28.01;37.76;100915.84;5031182;28;20140;-67
2022/08/05 01:05:12;;;;;;;3.67;1.80;;;;;;;28.00;37.83;100908.56;5029642;28;20605;-67
2022/08/05 01:07:42;;;;;;;2.92;1.90;;;;;;;28.01;37.93;100925.06;5030158;28;20526;-67
2022/08/05 01:10:38;;;;;;;3.40;1.90;;;;;;;28.01;38.27;100921.41;5030399;28;20053;-67
2022/08/05 01:13:14;;;;;;;2.70;1.75;;;;;;;27.99;38.37;100916.09;5019976;28;20050;-67
2022/08/05 01:16:00;;;;;;;4.97;1.90;;;;;;;27.98;38.05;100910.72;5027374;28;20044;-67
2022/08/05 01:18:33;;;;;;;3.55;1.65;;;;;;;27.97;38.26;100926.59;5030572;28;20041;-67
2022/08/05 01:21:11;;;;;;;3.60;1.88;;;;;;;27.95;38.42;100925.09;5032620;28;20049;-67
2022/08/05 01:24:06;;;;;;;2.63;1.70;;;;;;;27.91;38.16;100927.47;5021617;28;20046;-67
2022/08/05 01:26:56;;;;;;;3.53;1.90;;;;;;;27.88;38.37;100922.28;5028100;28;20049;-67
2022/08/05 01:29:31;;;;;;;3.35;2.03;;;;;;;27.86;38.82;100924.44;5031615;28;20045;-67
2022/08/05 01:32:06;;;;;;;3.20;2.00;;;;;;;27.84;38.18;100925.72;5034256;28;20045;-68
2022/08/05 01:34:54;;;;;;;3.78;2.08;;;;;;;27.81;38.39;100920.56;5033605;28;20093;-67
2022/08/05 01:37:29;;;;;;;3.70;2.13;;;;;;;27.79;38.91;100919.94;5034808;28;20112;-67
2022/08/05 01:40:01;;;;;;;4.07;2.28;;;;;;;27.75;38.55;100935.38;5020189;28;20506;-67
2022/08/05 01:42:32;;;;;;;5.30;2.40;;;;;;;27.75;38.61;100940.97;5033618;28;20530;-68
2022/08/05 01:45:03;;;;;;;3.78;2.10;;;;;;;27.73;38.92;100948.69;5033253;28;20560;-67
2022/08/05 01:47:36;;;;;;;4.38;2.33;;;;;;;27.69;38.99;100944.59;5034125;28;20112;-68
2022/08/05 01:50:11;;;;;;;3.80;2.30;;;;;;;27.66;39.14;100943.09;5032211;28;20053;-68
2022/08/05 01:52:45;;;;;;;4.30;2.45;;;;;;;27.63;39.16;100949.94;5033504;28;20056;-67
2022/08/05 01:55:20;;;;;;;4.57;2.45;;;;;;;27.61;39.09;100963.25;5032777;28;20041;-67
2022/08/05 01:57:52;;;;;;;4.10;2.23;;;;;;;27.57;39.44;100981.50;5031418;28;20379;-66
2022/08/05 02:00:48;;;;;;;4.65;2.50;;;;;;;27.55;39.96;101011.50;5029232;28;20045;-66
2022/08/05 02:03:21;;;;;;;3.85;2.20;;;;;;;27.56;39.75;101031.91;5025073;28;20054;-66
2022/08/05 02:06:00;;;;;;;5.50;2.30;;;;;;;27.52;39.36;101044.50;5028232;28;20041;-66
2022/08/05 02:08:49;;;;;;;3.72;2.33;;;;;;;27.50;39.22;101039.16;5032602;28;20049;-66
2022/08/05 02:11:31;;;;;;;3.28;2.22;;;;;;;27.52;39.57;101034.19;5033384;28;20052;-66
2022/08/05 02:14:05;;;;;;;4.35;2.20;;;;;;;27.52;39.79;101030.56;5031679;28;20041;-66
2022/08/05 02:16:39;;;;;;;4.22;2.60;;;;;;;27.51;40.04;101035.25;5018702;28;20033;-66
2022/08/05 02:19:17;;;;;;;5.53;2.55;;;;;;;27.51;40.58;101023.25;5032133;28;20543;-66
2022/08/05 02:21:53;;;;;;;4.60;2.80;;;;;;;27.50;40.67;101010.41;5033097;28;20041;-66
2022/08/05 02:24:26;;;;;;;5.68;3.17;;;;;;;27.48;40.36;101007.81;5032343;28;20137;-67
2022/08/05 02:26:59;;;;;;;5.35;3.22;;;;;;;27.48;40.58;101010.59;5032299;28;20047;-66
2022/08/05 02:29:40;;;;;;;5.18;3.60;;;;;;;27.43;40.20;101018.72;5030382;28;20057;-66
2022/08/05 02:32:30;;;;;;;5.55;3.65;;;;;;;27.45;40.48;101024.09;5021885;28;20049;-66
2022/08/05 02:35:00;;;;;;;6.25;3.95;;;;;;;27.41;40.57;101034.81;5032534;28;20140;-66
2022/08/05 02:37:42;;;;;;;5.50;3.75;;;;;;;27.39;40.54;101047.25;5032252;28;20038;-66
2022/08/05 02:40:22;;;;;;;7.05;4.07;;;;;;;27.36;40.50;101048.50;5020290;28;20049;-66
2022/08/05 02:42:54;;;;;;;7.47;4.43;;;;;;;27.33;40.89;101054.53;5032940;28;20490;-66
2022/08/05 02:45:23;;;;;;;5.68;4.10;;;;;;;27.33;40.51;101067.59;5032040;28;20136;-66
2022/08/05 02:47:57;;;;;;;6.43;4.13;;;;;;;27.33;40.94;101075.97;5022136;28;20136;-66
2022/08/05 02:50:42;;;;;;;6.18;4.30;;;;;;;27.27;41.07;101072.91;5032321;28;20783;-66
2022/08/05 02:53:12;;;;;;;6.45;4.65;;;;;;;27.23;41.17;101081.91;5032289;28;20457;-66
2022/08/05 02:55:47;;;;;;;7.03;5.07;;;;;;;27.23;41.09;101081.91;5031951;28;20076;-66
2022/08/05 02:58:27;;;;;;;7.68;5.35;;;;;;;27.21;41.22;101061.72;5025766;28;20116;-66
2022/08/05 03:01:00;;;;;;;8.70;6.55;;;;;;;27.21;41.44;101028.28;5030910;28;20057;-66
2022/08/05 03:03:32;;;;;;;9.90;6.57;;;;;;;27.18;41.86;101004.44;5032520;28;20520;-66
2022/08/05 03:06:21;;;;;;;8.20;6.22;;;;;;;27.14;41.63;100954.91;5033157;28;20076;-66
2022/08/05 03:09:12;;;;;;;9.18;6.78;;;;;;;27.11;41.73;100880.06;5038532;28;20396;-66
2022/08/05 03:11:54;;;;;;;9.95;6.95;;;;;;;26.99;41.56;100902.13;5036454;28;20045;-66
2022/08/05 03:14:25;;;;;;;9.25;7.30;;;;;;;26.91;41.79;100902.31;5030869;28;20057;-66
2022/08/05 03:16:53;;;;;;;9.68;7.00;;;;;;;26.81;41.99;100885.94;5031179;28;20067;-67
2022/08/05 03:19:22;;;;;;;9.25;7.43;;;;;;;26.72;42.14;100876.03;5030388;28;20128;-66
2022/08/05 03:22:01;;;;;;;7.38;5.85;;;;;;;26.58;42.31;100867.81;5018085;28;20124;-67
2022/08/05 03:24:32;;;;;;;7.05;5.28;;;;;;;26.49;42.47;100903.34;5029972;28;20414;-66
2022/08/05 03:27:01;;;;;;;5.93;4.70;;;;;;;26.40;42.87;100929.63;5035611;28;20045;-66
2022/08/05 03:29:33;;;;;;;7.05;4.28;;;;;;;26.29;42.88;100947.75;5023931;28;20160;-66
2022/08/05 03:32:22;;;;;;;6.13;4.03;;;;;;;26.23;43.04;100953.22;5015288;28;20033;-67
2022/08/05 03:35:00;;;;;;;5.53;3.70;;;;;;;26.19;43.35;100961.09;5018304;28;20057;-66
2022/08/05 03:37:31;;;;;;;5.30;3.63;;;;;;;26.13;43.43;100982.25;5030811;28;20120;-67
2022/08/05 03:40:13;;;;;;;6.35;4.28;;;;;;;26.07;43.62;100979.44;5019205;28;20045;-66
2022/08/05 03:42:51;;;;;;;5.60;3.63;;;;;;;26.06;44.08;100986.91;5030514;28;20096;-66
2022/08/05 03:45:20;;;;;;;5.32;3.40;;;;;;;26.06;43.98;101000.81;5011591;28;20046;-66
2022/08/05 03:47:51;;;;;;;6.03;3.88;;;;;;;26.05;44.25;101013.00;5031125;28;20041;-66
2022/08/05 03:50:28;;;;;;;6.00;3.75;;;;;;;26.08;44.69;101020.13;5029264;28;20176;-67
2022/08/05 03:53:03;;;;;;;5.15;3.63;;;;;;;26.08;44.87;101020.13;5026960;28;20041;-66
2022/08/05 03:55:57;;;;;;;5.03;3.58;;;;;;;26.08;44.82;101014.56;5027143;28;20049;-66
2022/08/05 03:58:42;;;;;;;5.43;3.63;;;;;;;26.07;44.66;101004.47;5029676;28;20041;-66
2022/08/05 04:01:13;;;;;;;5.90;3.97;;;;;;;26.06;44.36;100999.97;5029292;28;20077;-66
2022/08/05 04:03:44;;;;;;;6.15;4.07;;;;;;;26.08;44.88;100995.06;5030472;28;20042;-67
2022/08/05 04:06:34;;;;;;;4.95;3.47;;;;;;;26.08;44.82;100987.59;5039664;28;20057;-66
2022/08/05 04:09:05;;;;;;;4.85;3.60;;;;;;;26.09;44.96;100992.09;5024332;28;20502;-66
2022/08/05 04:11:35;;;;;;;6.25;4.22;;;;;;;26.07;44.41;100985.00;5031104;28;20052;-66
2022/08/05 04:14:19;;;;;;;5.35;4.07;;;;;;;26.08;44.78;100961.69;5029618;28;20057;-66
2022/08/05 04:16:59;;;;;;;5.72;3.92;;;;;;;26.10;44.80;100951.22;5029732;28;20045;-66
2022/08/05 04:19:30;;;;;;;6.43;4.38;;;;;;;26.08;45.12;100936.63;5029694;28;20099;-67
2022/08/05 04:21:59;;;;;;;7.68;4.88;;;;;;;26.12;44.93;100937.94;5024659;28;20790;-66
2022/08/05 04:24:38;;;;;;;6.50;4.47;;;;;;;26.10;44.83;100940.94;5022863;28;20049;-67
2022/08/05 04:27:12;;;;;;;5.88;4.28;;;;;;;26.11;45.40;100945.41;5030299;28;20498;-66
2022/08/05 04:29:42;;;;;;;6.32;4.20;;;;;;;26.12;45.03;100927.66;5026041;28;20563;-66
2022/08/05 04:32:10;;;;;;;5.35;3.90;;;;;;;26.13;45.24;100917.38;5030181;28;20056;-66
2022/08/05 04:34:38;;;;;;;5.47;4.13;;;;;;;26.13;44.90;100945.22;5029113;28;20072;-66
2022/08/05 04:37:11;;;;;;;6.23;3.60;;;;;;;26.13;45.39;100981.41;5029055;28;20049;-66
2022/08/05 04:39:39;;;;;;;5.00;3.47;;;;;;;26.13;45.24;100984.19;5028508;28;20076;-66
2022/08/05 04:42:08;;;;;;;5.40;3.60;;;;;;;26.14;45.29;100964.50;5029247;28;20068;-66
2022/08/05 04:44:38;;;;;;;5.20;3.72;;;;;;;26.14;44.96;100972.00;5033696;28;20700;-66
2022/08/05 04:47:06;;;;;;;5.70;4.10;;;;;;;26.14;45.10;100977.56;5037783;28;20378;-66
2022/08/05 04:49:38;;;;;;;6.07;4.20;;;;;;;26.13;44.84;100962.78;5029094;28;20104;-66
2022/08/05 04:52:27;;;;;;;6.15;3.90;;;;;;;26.13;44.98;100971.13;5029093;28;20064;-67
2022/08/05 04:55:00;;;;;;;6.50;4.47;;;;;;;26.11;44.69;100972.38;5030940;28;20071;-66
2022/08/05 04:57:44;;;;;;;7.13;4.70;;;;;;;26.12;44.98;100974.97;5035299;28;20143;-66
2022/08/05 05:00:18;;;;;;;6.50;4.28;;;;;;;26.08;44.53;100976.44;5032371;28;20050;-67
2022/08/05 05:02:51;;;;;;;5.82;4.15;;;;;;;26.06;44.76;100980.50;5025345;28;20052;-67
2022/08/05 05:05:19;;;;;;;7.68;4.63;;;;;;;26.05;44.43;100985.19;5036523;28;20136;-67
2022/08/05 05:08:01;;;;;;;6.85;3.97;;;;;;;26.07;45.38;100991.41;5037492;28;20046;-67
2022/08/05 05:10:30;;;;;;;6.55;4.30;;;;;;;26.05;44.49;100978.75;5036110;28;20541;-67
2022/08/05 05:13:00;;;;;;;7.10;4.63;;;;;;;26.02;44.74;100976.41;5037029;28;20052;-67
2022/08/05 05:15:31;;;;;;;6.00;4.45;;;;;;;26.01;44.97;100978.31;5036651;28;20053;-67
2022/08/05 05:18:19;;;;;;;7.07;4.40;;;;;;;25.99;45.11;100974.88;5036906;28;20045;-67
2022/08/05 05:21:00;;;;;;;7.63;4.53;;;;;;;25.98;44.98;100975.94;5021982;28;20033;-67
2022/08/05 05:23:29;;;;;;;6.90;5.28;;;;;;;25.99;44.64;100972.09;5036374;28;20124;-67
2022/08/05 05:26:17;;;;;;;7.68;6.05;;;;;;;25.95;44.87;100970.75;5037238;28;20041;-67
2022/08/05 05:28:45;;;;;;;11.30;6.60;;;;;;;25.93;45.02;100978.47;5025964;28;20053;-67
2022/08/05 05:31:14;;;;;;;9.07;6.85;;;;;;;25.92;44.70;100982.28;5036565;28;20077;-66
2022/08/05 05:33:45;;;;;;;8.90;6.10;;;;;;;25.90;44.93;100986.31;5035459;28;20045;-66
2022/08/05 05:36:28;;;;;;;9.52;7.15;;;;;;;25.89;44.88;100990.16;5037199;28;20104;-67
2022/08/05 05:38:58;;;;;;;8.13;6.38;;;;;;;25.91;45.43;100990.84;5035334;28;20518;-66
2022/08/05 05:41:27;;;;;;;9.18;7.05;;;;;;;25.87;44.88;100995.91;5034910;28;20096;-66
2022/08/05 05:44:09;;;;;;;10.63;7.80;;;;;;;25.85;45.34;101002.78;5035231;28;20141;-66
2022/08/05 05:46:58;;;;;;;12.02;8.27;;;;;;;25.85;44.87;100997.19;5027724;28;20381;-66
2022/08/05 05:49:31;;;;;;;10.38;8.20;;;;;;;25.86;45.13;101004.50;5035334;28;20038;-66
2022/08/05 05:52:00;;;;;;;11.30;8.50;;;;;;;25.84;45.02;101004.69;5036032;28;20041;-66
2022/08/05 05:54:35;;;;;;;10.65;7.80;;;;;;;25.86;45.13;101010.06;5021980;28;20057;-66
2022/08/05 05:57:18;;;;;;;10.98;8.35;;;;;;;25.83;45.56;101013.22;5035713;28;20518;-66
2022/08/05 05:59:46;;;;;;;12.50;8.98;;;;;;;25.83;45.06;101016.88;5026523;28;20045;-65
2022/08/05 06:02:16;;;;;;;12.90;9.85;;;;;;;25.83;45.15;101016.00;5036592;28;20048;-65
2022/08/05 06:05:04;;;;;;;12.40;9.43;;;;;;;25.82;45.19;101011.50;5035139;28;20099;-65
2022/08/05 06:07:45;;;;;;;14.35;9.60;;;;;;;25.84;45.05;101018.59;5022709;28;20072;-65
2022/08/05 06:10:30;;;;;;;13.13;10.10;;;;;;;25.85;45.37;101013.91;5031849;28;20533;-65
2022/08/05 06:13:04;;;;;;;12.80;9.80;;;;;;;25.82;45.25;101008.72;5014779;28;20049;-64
2022/08/05 06:15:32;;;;;;;11.82;9.50;;;;;;;25.82;45.39;101009.56;5012249;28;20029;-65
2022/08/05 06:18:20;;;;;;;12.23;8.98;;;;;;;25.82;45.38;101019.84;5030429;28;20041;-68
2022/08/05 06:20:58;;;;;;;11.15;9.27;;;;;;;25.81;45.97;101030.09;5030215;28;20045;-64
2022/08/05 06:23:26;;;;;;;12.80;9.15;;;;;;;25.84;45.70;101024.16;5029639;28;20120;-67
2022/08/05 06:26:12;;;;;;;10.02;7.95;;;;;;;25.86;46.23;101026.75;5019452;28;20073;-64
2022/08/05 06:28:50;;;;;;;8.50;6.70;;;;;;;25.88;45.57;101044.06;5027363;28;20049;-66
2022/08/05 06:31:18;;;;;;;10.68;7.95;;;;;;;25.92;45.86;101049.06;5029556;28;20041;-65
2022/08/05 06:33:49;;;;;;;10.32;7.55;;;;;;;25.99;45.99;101052.78;5029893;28;20048;-66
2022/08/05 06:36:36;;;;;;;10.82;8.05;;;;;;;26.05;46.02;101054.75;5029615;28;20044;-66
2022/08/05 06:39:24;;;;;;;12.55;8.52;;;;;;;26.12;45.96;101064.03;5031776;28;20045;-67
2022/08/05 06:41:56;;;;;;;13.00;8.75;;;;;;;26.21;45.72;101066.69;5035948;28;20046;-66
2022/08/05 06:44:26;;;;;;;11.93;9.02;;;;;;;26.21;45.30;101066.69;5029255;28;20057;-66
2022/08/05 06:46:54;;;;;;;12.45;9.57;;;;;;;26.27;45.07;101060.38;5033635;28;20042;-65
2022/08/05 06:49:23;;;;;;;11.85;9.50;;;;;;;26.26;44.91;101059.50;5016417;28;20045;-66
2022/08/05 06:52:11;;;;;;;13.02;9.77;;;;;;;26.25;44.56;101062.44;5034174;28;20048;-66
2022/08/05 06:54:59;;;;;;;14.75;11.23;;;;;;;26.24;44.59;101063.50;5020667;28;20050;-70
2022/08/05 06:57:30;;;;;;;18.08;13.48;;;;;;;26.25;44.78;101070.81;5029941;28;20053;-68
2022/08/05 07:00:19;;;;;;;21.23;14.80;;;;;;;26.20;44.43;101064.94;5022333;28;20139;-70
2022/08/05 07:02:52;;;;;;;21.77;16.02;;;;;;;26.17;44.46;101068.16;5030799;28;20038;-68
2022/08/05 07:05:21;;;;;;;22.05;16.63;;;;;;;26.13;44.25;101071.31;5031755;28;20402;-69
2022/08/05 07:08:04;;;;;;;24.27;18.27;;;;;;;26.09;44.21;101067.22;5029943;28;20041;-68
2022/08/05 07:10:32;;;;;;;23.25;17.85;;;;;;;26.07;44.82;101068.47;5019079;28;20041;-68
2022/08/05 07:19:13;;;;;;;27.70;19.38;;;;;;;25.93;44.82;101095.31;5016983;28;20157;-68
2022/08/05 07:22:01;;;;;;;25.08;18.30;;;;;;;25.90;44.48;101108.75;5028962;28;20475;-67
2022/08/05 07:24:29;;;;;;;18.95;15.38;;;;;;;25.87;44.16;101111.91;5028446;28;20045;-67
2022/08/05 07:26:58;;;;;;;16.60;12.50;;;;;;;25.85;44.17;101114.91;5029329;28;20048;-68
2022/08/05 07:29:31;;;;;;;14.73;10.63;;;;;;;25.82;44.25;101123.63;5025310;28;20537;-68
2022/08/05 07:32:19;;;;;;;11.93;9.13;;;;;;;25.76;44.31;101114.16;5019537;28;20053;-67
2022/08/05 07:34:53;;;;;;;11.20;8.07;;;;;;;25.74;44.23;101129.31;5028160;28;20129;-69
2022/08/05 07:37:25;;;;;;;10.55;8.00;;;;;;;25.69;43.99;101126.25;5029115;28;20052;-67
2022/08/05 07:40:03;;;;;;;8.50;6.35;;;;;;;25.65;44.08;101128.56;5015655;28;20056;-67
2022/08/05 07:42:51;;;;;;;9.68;6.32;;;;;;;25.61;44.21;101134.72;5028167;28;20121;-67
2022/08/05 07:45:20;;;;;;;10.85;6.55;;;;;;;25.59;44.12;101143.25;5028455;28;20511;-67
2022/08/05 07:48:08;;;;;;;10.90;6.80;;;;;;;25.50;44.05;101135.16;5022665;28;20061;-71
2022/08/05 07:50:37;;;;;;;10.43;6.72;;;;;;;25.46;44.08;101136.59;5028230;28;20493;-70
2022/08/05 07:53:05;;;;;;;10.25;6.65;;;;;;;25.40;43.98;101152.13;5021788;28;20049;-69
2022/08/05 07:55:33;;;;;;;9.43;6.15;;;;;;;25.35;44.49;101154.63;5028041;28;20049;-70
2022/08/05 07:58:21;;;;;;;9.25;6.03;;;;;;;25.29;44.63;101153.44;5023092;28;20046;-69
2022/08/05 08:01:11;;;;;;;9.35;5.35;;;;;;;25.28;44.79;101162.84;5027765;28;20489;-71
2022/08/05 08:03:39;;;;;;;9.10;5.82;;;;;;;25.26;44.41;101176.09;5027718;28;20100;-70
2022/08/05 08:06:11;;;;;;;;;;;;;;;24.97;45.02;101178.81;5026972;28;20049;-69
2022/08/05 08:08:39;;;;;;;6.53;4.40;;;;;;;25.21;44.35;101186.91;5027419;28;20008;-70
2022/08/05 08:11:07;;;;;;;7.32;4.32;;;;;;;25.23;44.22;101183.94;5028010;28;20403;-66
2022/08/05 08:13:42;;;;;;;5.30;3.80;;;;;;;25.22;44.59;101190.53;5027990;28;20045;-69
2022/08/05 08:16:30;;;;;;;5.30;3.33;;;;;;;25.22;44.36;101196.97;5010731;28;20064;-70
2022/08/05 08:19:17;;;;;;;5.85;3.17;;;;;;;25.19;44.51;101193.72;5026943;28;20065;-70
2022/08/05 08:22:05;;;;;;;5.93;3.08;;;;;;;25.19;44.73;101196.50;5028255;28;20041;-68
2022/08/05 08:24:37;;;;;;;5.70;3.45;;;;;;;25.19;44.39;101204.84;5027804;28;20045;-66
2022/08/05 08:27:19;;;;;;;4.53;3.10;;;;;;;25.16;44.74;101205.19;5016495;28;20045;-70
2022/08/05 08:29:47;;;;;;;5.00;2.85;;;;;;;25.14;44.63;101208.16;5025725;28;20041;-66
2022/08/05 08:32:36;;;;;;;5.65;3.13;;;;;;;25.13;44.64;101208.34;5028010;28;20371;-68
2022/08/05 08:35:09;;;;;;;4.68;2.85;;;;;;;25.11;44.40;101222.44;5009475;28;20103;-67
2022/08/05 08:37:40;;;;;;;5.55;3.13;;;;;;;25.06;44.13;101216.56;5010502;28;20041;-69
2022/08/05 08:40:12;;;;;;;5.18;3.15;;;;;;;25.06;44.00;101216.56;5026897;28;20042;-67
2022/08/05 08:42:46;;;;;;;4.55;2.90;;;;;;;25.05;44.20;101217.63;5010122;28;20136;-67
2022/08/05 08:45:20;;;;;;;5.20;2.95;;;;;;;25.01;44.14;101221.84;5009427;28;20084;-67
2022/08/05 08:48:01;;;;;;;5.55;2.88;;;;;;;24.96;43.60;101218.75;5027575;28;20045;-67
2022/08/05 08:50:41;;;;;;;4.63;2.70;;;;;;;24.90;43.82;101223.13;5027102;28;20054;-67
2022/08/05 08:53:36;;;;;;;4.10;2.83;;;;;;;24.87;43.62;101228.19;5027310;28;20069;-68
2022/08/05 08:56:05;;;;;;;6.32;2.72;;;;;;;24.83;43.59;101240.72;5027546;28;20049;-68
2022/08/05 08:58:33;;;;;;;4.60;2.65;;;;;;;24.77;43.74;101238.69;5022156;28;20578;-68
2022/08/05 09:01:15;;;;;;;4.70;2.55;;;;;;;24.74;44.13;101247.38;5021366;28;20050;-68
2022/08/05 09:03:49;;;;;;;4.22;2.38;;;;;;;24.73;44.11;101248.44;5027037;28;20041;-68
2022/08/05 09:06:25;;;;;;;5.15;2.35;;;;;;;24.65;43.60;101247.44;5027458;28;20562;-68
2022/08/05 09:08:59;;;;;;;5.78;2.50;;;;;;;24.64;43.41;101250.41;5026853;28;20141;-67
2022/08/05 09:11:27;;;;;;;4.20;1.98;;;;;;;24.60;43.55;101261.03;5027886;28;20398;-67
2022/08/05 09:14:16;;;;;;;4.07;2.13;;;;;;;24.58;43.30;101265.88;5018721;28;20054;-68
2022/08/05 09:17:06;;;;;;;6.22;2.33;;;;;;;24.57;43.47;101255.81;5027492;28;20045;-69
2022/08/05 09:19:56;;;;;;;5.55;2.53;;;;;;;24.56;43.22;101269.88;5026590;28;20041;-68
2022/08/05 09:23:10;;;;;;;4.68;2.58;;;;;;;24.49;43.51;101283.63;5034873;28;20037;-68
2022/08/05 09:25:49;;;;;;;4.35;2.35;;;;;;;24.51;43.73;101286.25;5016625;28;20049;-69
2022/08/05 09:28:31;;;;;;;4.93;2.30;;;;;;;24.53;44.17;101281.38;5026700;28;20054;-68
2022/08/05 09:31:04;;;;;;;3.83;2.40;;;;;;;24.55;44.07;101277.34;5026660;28;20045;-69
2022/08/05 09:33:54;;;;;;;3.72;2.53;;;;;;;24.56;43.65;101281.00;5026735;28;20120;-69
2022/08/05 09:36:37;;;;;;;3.80;2.30;;;;;;;24.59;43.56;101284.28;5027540;28;20045;-68
2022/08/05 09:39:23;;;;;;;5.47;2.17;;;;;;;24.57;43.72;101282.72;5026759;28;20041;-68
2022/08/05 09:42:11;;;;;;;4.95;2.38;;;;;;;24.59;43.82;101286.19;5028994;28;20046;-68
2022/08/05 09:44:53;;;;;;;4.28;2.50;;;;;;;24.62;44.03;101294.16;5030780;28;20132;-68
2022/08/05 09:47:26;;;;;;;3.20;2.10;;;;;;;24.63;44.51;101296.72;5031410;28;20041;-70
2022/08/05 09:50:18;;;;;;;4.40;2.47;;;;;;;24.65;44.70;101300.19;5030419;28;20058;-68
2022/08/05 09:53:07;;;;;;;5.32;2.83;;;;;;;24.70;44.78;101305.22;5019032;28;20116;-68
2022/08/05 09:55:39;;;;;;;4.72;2.63;;;;;;;24.73;44.43;101313.16;5016720;28;20072;-68
2022/08/05 09:58:27;;;;;;;4.57;2.70;;;;;;;24.76;44.80;101312.81;5023132;28;20507;-68
2022/08/05 10:01:00;;;;;;;4.53;2.30;;;;;;;24.83;44.26;101313.78;5029607;28;20217;-68
2022/08/05 10:03:54;;;;;;;5.05;2.67;;;;;;;24.83;44.62;101313.78;5030263;28;20042;-70
2022/08/05 10:06:27;;;;;;;3.95;2.38;;;;;;;24.88;44.32;101321.56;5031265;28;20461;-68
2022/08/05 10:09:11;;;;;;;5.30;2.42;;;;;;;24.96;44.38;101332.66;5029309;28;20061;-68
2022/08/05 10:11:55;;;;;;;3.78;2.20;;;;;;;24.96;43.96;101325.19;5030890;28;20038;-70
2022/08/05 10:14:27;;;;;;;4.30;2.13;;;;;;;25.04;44.25;101321.47;5029808;28;20053;-68
2022/08/05 10:17:13;;;;;;;4.13;2.30;;;;;;;25.11;44.53;101335.50;5030495;28;20097;-70
2022/08/05 10:20:02;;;;;;;3.70;2.15;;;;;;;25.10;44.12;101331.88;5029242;28;20047;-68
2022/08/05 10:22:40;;;;;;;5.13;2.25;;;;;;;25.21;44.18;101344.44;5030680;28;20576;-68
2022/08/05 10:25:17;;;;;;;3.50;2.38;;;;;;;25.26;43.90;101345.63;5029550;28;20045;-69
2022/08/05 10:27:47;;;;;;;4.78;2.53;;;;;;;25.31;44.25;101354.25;5029431;28;20555;-67
2022/08/05 10:30:36;;;;;;;3.92;2.03;;;;;;;25.37;44.30;101352.66;5025401;28;20064;-68
2022/08/05 10:33:26;;;;;;;3.55;2.20;;;;;;;25.47;43.80;101366.28;5012622;28;20057;-69
2022/08/05 10:35:57;;;;;;;4.83;2.43;;;;;;;25.54;43.89;101367.28;5029888;28;20387;-69
2022/08/05 10:38:28;;;;;;;6.43;2.35;;;;;;;25.64;43.29;101356.78;5029841;28;20342;-69
2022/08/05 10:41:07;;;;;;;4.13;2.03;;;;;;;25.76;43.11;101367.28;5029832;28;20046;-71
2022/08/05 10:43:47;;;;;;;3.30;2.00;;;;;;;25.85;42.91;101376.41;5029869;28;20065;-68
2022/08/05 10:46:18;;;;;;;2.83;1.95;;;;;;;25.94;43.11;101372.50;5029755;28;20045;-68
2022/08/05 10:48:56;;;;;;;4.70;2.15;;;;;;;26.08;42.88;101370.78;5029530;28;20041;-69
2022/08/05 10:51:43;;;;;;;3.80;1.90;;;;;;;26.20;42.08;101365.56;5026777;28;20399;-68
2022/08/05 10:54:47;;;;;;;2.38;1.55;;;;;;;26.33;42.22;101375.03;5027868;28;20064;-69
2022/08/05 10:57:28;;;;;;;3.53;1.63;;;;;;;26.50;41.03;101372.91;5005960;28;20052;-69
2022/08/05 11:00:17;;;;;;;4.15;1.80;;;;;;;26.65;41.17;101379.31;5020297;28;20549;-68
2022/08/05 11:03:09;;;;;;;3.13;1.42;;;;;;;26.77;40.75;101386.09;5028810;28;20053;-69
2022/08/05 11:06:08;;;;;;;3.92;1.70;;;;;;;26.93;40.23;101395.34;5028986;28;20041;-69
2022/08/05 11:09:12;;;;;;;3.15;1.83;;;;;;;27.03;40.12;101401.44;5028863;28;20052;-70
2022/08/05 11:11:45;;;;;;;4.43;1.77;;;;;;;27.14;40.30;101395.34;5013188;28;20506;-69
2022/08/05 11:14:27;;;;;;;3.10;1.70;;;;;;;27.30;39.58;101400.69;5028591;28;20049;-69
2022/08/05 11:17:39;;;;;;;3.85;1.75;;;;;;;27.37;39.15;101407.19;5030126;28;20367;-69
2022/08/05 11:20:39;;;;;;;4.22;1.67;;;;;;;27.51;38.46;101402.59;5020019;28;20052;-70
2022/08/05 11:23:34;;;;;;;5.22;2.55;;;;;;;27.57;37.97;101405.50;5026888;28;20474;-69
2022/08/05 11:26:23;;;;;;;3.03;1.80;;;;;;;27.62;38.13;101405.75;5028555;28;20053;-67
2022/08/05 11:29:00;;;;;;;3.33;1.60;;;;;;;27.66;37.77;101403.44;5027531;28;20077;-66
2022/08/05 11:31:45;;;;;;;3.80;2.00;;;;;;;27.69;36.85;101407.72;5028333;28;20087;-69
2022/08/05 11:34:38;;;;;;;4.55;2.40;;;;;;;27.70;36.36;101399.16;5028235;28;20052;-68
2022/08/05 11:37:06;;;;;;;3.80;2.00;;;;;;;27.67;37.32;101404.31;5028758;28;20049;-71
2022/08/05 11:39:54;;;;;;;3.00;1.85;;;;;;;27.66;37.48;101405.34;5028039;28;20056;-70
2022/08/05 11:42:32;;;;;;;4.22;2.38;;;;;;;27.69;37.51;101407.72;5028483;28;20128;-70
2022/08/05 11:45:08;;;;;;;3.65;2.60;;;;;;;27.69;37.35;101405.81;5010395;28;20116;-68
2022/08/05 11:47:58;;;;;;;3.33;2.63;;;;;;;27.73;36.97;101414.66;5028688;28;20046;-70
2022/08/05 11:50:28;;;;;;;4.10;2.60;;;;;;;27.74;37.54;101397.72;5028307;28;20056;-68
2022/08/05 11:52:56;;;;;;;4.13;2.28;;;;;;;27.78;37.70;101403.72;5015707;28;20514;-68
2022/08/05 11:55:26;;;;;;;3.03;2.22;;;;;;;27.84;37.92;101402.91;5027556;28;20418;-69
2022/08/05 11:57:58;;;;;;;4.07;2.45;;;;;;;27.91;37.57;101406.66;5014061;28;20533;-68
2022/08/05 12:00:39;;;;;;;5.07;2.80;;;;;;;28.00;37.40;101403.47;5024674;28;20139;-70
2022/08/05 12:03:20;;;;;;;4.03;2.70;;;;;;;28.14;36.48;101404.47;5028053;28;20115;-70
2022/08/05 12:06:00;;;;;;;4.00;2.42;;;;;;;28.22;37.07;101400.69;5015040;28;20154;-69
2022/08/05 12:08:29;;;;;;;4.50;2.40;;;;;;;28.30;36.76;101400.50;5028827;28;20462;-69
2022/08/05 12:11:01;;;;;;;4.75;2.25;;;;;;;28.39;36.48;101402.06;5028685;28;20042;-70
2022/08/05 12:13:33;;;;;;;2.92;2.10;;;;;;;28.47;36.28;101401.03;5030786;28;20095;-70
2022/08/05 12:16:20;;;;;;;2.85;1.90;;;;;;;28.54;35.60;101410.31;5018482;28;20056;-69
2022/08/05 12:18:55;;;;;;;4.65;2.20;;;;;;;28.55;35.48;101404.53;5027588;28;20041;-68
2022/08/05 12:21:25;;;;;;;4.03;2.75;;;;;;;28.59;35.20;101413.34;5028167;28;20033;-71